sensor_id;sensor_type;location;lat;lon;timestamp;P1;durP1;ratioP1;P2;durP2;ratioP2
3433;SDS011;1730;41.932;25.548;2023-04-25T00:02:19;9.73;;;8.93;;
3433;SDS011;1730;41.932;25.548;2023-04-25T00:04:45;12.63;;;8.57;;
3433;SDS011;1730;41.932;25.548;2023-04-25T00:07:11;10.67;;;9.30;;
3433;SDS011;1730;41.932;25.548;2023-04-25T00:09:37;9.60;;;8.70;;
3433;SDS011;1730;41.932;25.548;2023-04-25T00:12:03;11.13;;;9.67;;
3433;SDS011;1730;41.932;25.548;2023-04-25T00:14:29;10.30;;;8.60;;
3433;SDS011;1730;41.932;25.548;2023-04-25T00:16:54;9.70;;;8.90;;
3433;SDS011;1730;41.932;25.548;2023-04-25T00:19:20;10.80;;;9.70;;
3433;SDS011;1730;41.932;25.548;2023-04-25T00:21:45;10.60;;;9.60;;
3433;SDS011;1730;41.932;25.548;2023-04-25T00:24:11;10.50;;;9.47;;
3433;SDS011;1730;41.932;25.548;2023-04-25T00:26:37;10.63;;;9.30;;
3433;SDS011;1730;41.932;25.548;2023-04-25T00:29:03;10.67;;;9.67;;
3433;SDS011;1730;41.932;25.548;2023-04-25T00:31:29;12.23;;;11.10;;
3433;SDS011;1730;41.932;25.548;2023-04-25T00:33:54;11.00;;;9.87;;
3433;SDS011;1730;41.932;25.548;2023-04-25T00:36:20;10.93;;;8.97;;
3433;SDS011;1730;41.932;25.548;2023-04-25T00:38:45;11.10;;;10.00;;
3433;SDS011;1730;41.932;25.548;2023-04-25T00:41:11;14.30;;;10.47;;
3433;SDS011;1730;41.932;25.548;2023-04-25T00:43:37;10.87;;;9.90;;
3433;SDS011;1730;41.932;25.548;2023-04-25T00:46:03;10.17;;;9.30;;
3433;SDS011;1730;41.932;25.548;2023-04-25T00:48:28;10.57;;;9.53;;
3433;SDS011;1730;41.932;25.548;2023-04-25T00:50:55;11.43;;;10.33;;
3433;SDS011;1730;41.932;25.548;2023-04-25T00:53:23;12.07;;;10.23;;
3433;SDS011;1730;41.932;25.548;2023-04-25T00:55:51;10.23;;;9.40;;
3433;SDS011;1730;41.932;25.548;2023-04-25T00:58:17;12.83;;;11.60;;
3433;SDS011;1730;41.932;25.548;2023-04-25T01:00:44;13.83;;;11.20;;
3433;SDS011;1730;41.932;25.548;2023-04-25T01:03:11;12.77;;;11.30;;
3433;SDS011;1730;41.932;25.548;2023-04-25T01:05:38;11.63;;;10.60;;
3433;SDS011;1730;41.932;25.548;2023-04-25T01:08:06;13.30;;;10.97;;
3433;SDS011;1730;41.932;25.548;2023-04-25T01:10:32;11.57;;;10.37;;
3433;SDS011;1730;41.932;25.548;2023-04-25T01:12:57;12.23;;;10.97;;
3433;SDS011;1730;41.932;25.548;2023-04-25T01:15:23;12.00;;;10.87;;
3433;SDS011;1730;41.932;25.548;2023-04-25T01:17:48;13.10;;;11.90;;
3433;SDS011;1730;41.932;25.548;2023-04-25T01:20:14;11.83;;;10.83;;
3433;SDS011;1730;41.932;25.548;2023-04-25T01:22:41;12.23;;;11.10;;
3433;SDS011;1730;41.932;25.548;2023-04-25T01:25:07;14.67;;;13.17;;
3433;SDS011;1730;41.932;25.548;2023-04-25T01:27:35;12.60;;;11.50;;
3433;SDS011;1730;41.932;25.548;2023-04-25T01:30:01;13.13;;;11.67;;
3433;SDS011;1730;41.932;25.548;2023-04-25T01:32:28;12.70;;;11.60;;
3433;SDS011;1730;41.932;25.548;2023-04-25T01:34:56;12.27;;;11.27;;
3433;SDS011;1730;41.932;25.548;2023-04-25T01:37:22;11.93;;;10.93;;
3433;SDS011;1730;41.932;25.548;2023-04-25T01:39:47;12.13;;;10.93;;
3433;SDS011;1730;41.932;25.548;2023-04-25T01:42:15;14.03;;;10.97;;
3433;SDS011;1730;41.932;25.548;2023-04-25T01:44:40;12.43;;;11.20;;
3433;SDS011;1730;41.932;25.548;2023-04-25T01:47:06;12.07;;;10.90;;
3433;SDS011;1730;41.932;25.548;2023-04-25T01:49:32;12.70;;;11.60;;
3433;SDS011;1730;41.932;25.548;2023-04-25T01:51:57;12.50;;;11.30;;
3433;SDS011;1730;41.932;25.548;2023-04-25T01:54:23;12.40;;;11.30;;
3433;SDS011;1730;41.932;25.548;2023-04-25T01:56:51;11.70;;;10.70;;
3433;SDS011;1730;41.932;25.548;2023-04-25T01:59:18;10.83;;;9.83;;
3433;SDS011;1730;41.932;25.548;2023-04-25T02:01:45;12.43;;;11.40;;
3433;SDS011;1730;41.932;25.548;2023-04-25T02:04:10;11.37;;;10.30;;
3433;SDS011;1730;41.932;25.548;2023-04-25T02:06:36;11.40;;;10.27;;
3433;SDS011;1730;41.932;25.548;2023-04-25T02:09:01;10.97;;;10.13;;
3433;SDS011;1730;41.932;25.548;2023-04-25T02:11:27;9.93;;;9.07;;
3433;SDS011;1730;41.932;25.548;2023-04-25T02:13:52;9.73;;;8.80;;
3433;SDS011;1730;41.932;25.548;2023-04-25T02:16:18;9.30;;;8.60;;
3433;SDS011;1730;41.932;25.548;2023-04-25T02:18:44;7.63;;;7.10;;
3433;SDS011;1730;41.932;25.548;2023-04-25T02:21:10;8.90;;;8.20;;
3433;SDS011;1730;41.932;25.548;2023-04-25T02:23:36;9.80;;;8.50;;
3433;SDS011;1730;41.932;25.548;2023-04-25T02:26:02;8.50;;;7.90;;
3433;SDS011;1730;41.932;25.548;2023-04-25T02:28:28;7.97;;;7.30;;
3433;SDS011;1730;41.932;25.548;2023-04-25T02:30:53;8.57;;;7.80;;
3433;SDS011;1730;41.932;25.548;2023-04-25T02:33:19;7.60;;;7.00;;
3433;SDS011;1730;41.932;25.548;2023-04-25T02:35:46;8.03;;;7.20;;
3433;SDS011;1730;41.932;25.548;2023-04-25T02:38:11;8.47;;;7.23;;
3433;SDS011;1730;41.932;25.548;2023-04-25T02:40:37;7.50;;;6.80;;
3433;SDS011;1730;41.932;25.548;2023-04-25T02:43:02;6.93;;;6.53;;
3433;SDS011;1730;41.932;25.548;2023-04-25T02:45:28;13.83;;;7.03;;
3433;SDS011;1730;41.932;25.548;2023-04-25T02:47:53;7.63;;;6.40;;
3433;SDS011;1730;41.932;25.548;2023-04-25T02:50:19;6.33;;;5.93;;
3433;SDS011;1730;41.932;25.548;2023-04-25T02:52:44;7.13;;;6.43;;
3433;SDS011;1730;41.932;25.548;2023-04-25T02:55:11;8.30;;;6.03;;
3433;SDS011;1730;41.932;25.548;2023-04-25T02:57:38;6.63;;;6.03;;
3433;SDS011;1730;41.932;25.548;2023-04-25T03:00:04;8.73;;;6.23;;
3433;SDS011;1730;41.932;25.548;2023-04-25T03:02:30;6.60;;;6.07;;
3433;SDS011;1730;41.932;25.548;2023-04-25T03:04:55;6.60;;;6.00;;
3433;SDS011;1730;41.932;25.548;2023-04-25T03:07:21;6.80;;;5.90;;
3433;SDS011;1730;41.932;25.548;2023-04-25T03:09:46;6.57;;;5.87;;
3433;SDS011;1730;41.932;25.548;2023-04-25T03:12:12;7.33;;;6.63;;
3433;SDS011;1730;41.932;25.548;2023-04-25T03:14:37;6.87;;;6.23;;
3433;SDS011;1730;41.932;25.548;2023-04-25T03:17:03;7.07;;;6.37;;
3433;SDS011;1730;41.932;25.548;2023-04-25T03:19:28;7.07;;;6.57;;
3433;SDS011;1730;41.932;25.548;2023-04-25T03:21:54;7.40;;;6.70;;
3433;SDS011;1730;41.932;25.548;2023-04-25T03:24:19;7.83;;;7.10;;
3433;SDS011;1730;41.932;25.548;2023-04-25T03:26:45;10.43;;;6.00;;
3433;SDS011;1730;41.932;25.548;2023-04-25T03:29:11;7.07;;;6.57;;
3433;SDS011;1730;41.932;25.548;2023-04-25T03:31:36;7.93;;;7.13;;
3433;SDS011;1730;41.932;25.548;2023-04-25T03:34:02;8.93;;;7.03;;
3433;SDS011;1730;41.932;25.548;2023-04-25T03:36:27;6.77;;;6.37;;
3433;SDS011;1730;41.932;25.548;2023-04-25T03:38:53;6.80;;;6.30;;
3433;SDS011;1730;41.932;25.548;2023-04-25T03:41:18;8.43;;;7.23;;
3433;SDS011;1730;41.932;25.548;2023-04-25T03:43:44;9.60;;;6.70;;
3433;SDS011;1730;41.932;25.548;2023-04-25T03:46:10;9.23;;;6.93;;
3433;SDS011;1730;41.932;25.548;2023-04-25T03:48:35;8.37;;;7.33;;
3433;SDS011;1730;41.932;25.548;2023-04-25T03:51:01;9.13;;;8.20;;
3433;SDS011;1730;41.932;25.548;2023-04-25T03:53:26;8.10;;;7.37;;
3433;SDS011;1730;41.932;25.548;2023-04-25T03:55:52;8.40;;;7.80;;
3433;SDS011;1730;41.932;25.548;2023-04-25T03:58:17;10.00;;;7.70;;
3433;SDS011;1730;41.932;25.548;2023-04-25T04:00:43;8.27;;;7.43;;
3433;SDS011;1730;41.932;25.548;2023-04-25T04:03:08;9.43;;;7.63;;
3433;SDS011;1730;41.932;25.548;2023-04-25T04:05:34;11.90;;;8.43;;
3433;SDS011;1730;41.932;25.548;2023-04-25T04:07:59;16.00;;;8.63;;
3433;SDS011;1730;41.932;25.548;2023-04-25T04:10:25;9.50;;;8.70;;
3433;SDS011;1730;41.932;25.548;2023-04-25T04:12:51;10.20;;;8.03;;
3433;SDS011;1730;41.932;25.548;2023-04-25T04:15:16;8.77;;;7.97;;
3433;SDS011;1730;41.932;25.548;2023-04-25T04:17:42;10.10;;;8.20;;
3433;SDS011;1730;41.932;25.548;2023-04-25T04:20:08;16.90;;;8.80;;
3433;SDS011;1730;41.932;25.548;2023-04-25T04:22:33;19.70;;;9.40;;
3433;SDS011;1730;41.932;25.548;2023-04-25T04:24:59;12.30;;;9.50;;
3433;SDS011;1730;41.932;25.548;2023-04-25T04:27:25;19.00;;;11.20;;
3433;SDS011;1730;41.932;25.548;2023-04-25T04:29:51;11.90;;;9.27;;
3433;SDS011;1730;41.932;25.548;2023-04-25T04:32:18;10.37;;;9.47;;
3433;SDS011;1730;41.932;25.548;2023-04-25T04:34:43;9.53;;;8.53;;
3433;SDS011;1730;41.932;25.548;2023-04-25T04:37:09;11.73;;;9.27;;
3433;SDS011;1730;41.932;25.548;2023-04-25T04:39:35;16.77;;;9.80;;
3433;SDS011;1730;41.932;25.548;2023-04-25T04:42:01;17.57;;;8.90;;
3433;SDS011;1730;41.932;25.548;2023-04-25T04:44:27;10.83;;;8.87;;
3433;SDS011;1730;41.932;25.548;2023-04-25T04:46:53;10.70;;;9.37;;
3433;SDS011;1730;41.932;25.548;2023-04-25T04:49:19;14.23;;;8.93;;
3433;SDS011;1730;41.932;25.548;2023-04-25T04:51:45;11.13;;;7.73;;
3433;SDS011;1730;41.932;25.548;2023-04-25T04:54:12;9.23;;;8.33;;
3433;SDS011;1730;41.932;25.548;2023-04-25T04:56:37;9.43;;;8.50;;
3433;SDS011;1730;41.932;25.548;2023-04-25T04:59:03;11.37;;;7.40;;
3433;SDS011;1730;41.932;25.548;2023-04-25T05:01:28;8.10;;;7.40;;
3433;SDS011;1730;41.932;25.548;2023-04-25T05:03:55;6.73;;;6.23;;
3433;SDS011;1730;41.932;25.548;2023-04-25T05:06:25;8.63;;;7.83;;
3433;SDS011;1730;41.932;25.548;2023-04-25T05:08:51;9.17;;;8.33;;
3433;SDS011;1730;41.932;25.548;2023-04-25T05:11:18;9.13;;;7.30;;
3433;SDS011;1730;41.932;25.548;2023-04-25T05:13:44;8.53;;;7.50;;
3433;SDS011;1730;41.932;25.548;2023-04-25T05:16:11;10.10;;;8.00;;
3433;SDS011;1730;41.932;25.548;2023-04-25T05:18:37;8.37;;;7.77;;
3433;SDS011;1730;41.932;25.548;2023-04-25T05:21:02;8.63;;;7.73;;
3433;SDS011;1730;41.932;25.548;2023-04-25T05:23:28;7.63;;;7.07;;
3433;SDS011;1730;41.932;25.548;2023-04-25T05:25:55;7.60;;;7.10;;
3433;SDS011;1730;41.932;25.548;2023-04-25T05:28:21;7.27;;;6.67;;
3433;SDS011;1730;41.932;25.548;2023-04-25T05:30:46;9.20;;;8.50;;
3433;SDS011;1730;41.932;25.548;2023-04-25T05:33:12;12.43;;;7.10;;
3433;SDS011;1730;41.932;25.548;2023-04-25T05:35:37;6.70;;;6.27;;
3433;SDS011;1730;41.932;25.548;2023-04-25T05:38:03;7.37;;;6.77;;
3433;SDS011;1730;41.932;25.548;2023-04-25T05:40:29;7.70;;;7.07;;
3433;SDS011;1730;41.932;25.548;2023-04-25T05:42:54;6.00;;;5.57;;
3433;SDS011;1730;41.932;25.548;2023-04-25T05:45:20;6.20;;;5.80;;
3433;SDS011;1730;41.932;25.548;2023-04-25T05:47:45;5.23;;;4.83;;
3433;SDS011;1730;41.932;25.548;2023-04-25T05:50:11;4.73;;;4.43;;
3433;SDS011;1730;41.932;25.548;2023-04-25T05:52:36;7.87;;;4.70;;
3433;SDS011;1730;41.932;25.548;2023-04-25T05:55:02;5.17;;;4.30;;
3433;SDS011;1730;41.932;25.548;2023-04-25T05:57:27;8.10;;;5.50;;
3433;SDS011;1730;41.932;25.548;2023-04-25T05:59:53;5.30;;;4.33;;
3433;SDS011;1730;41.932;25.548;2023-04-25T06:02:22;5.10;;;4.70;;
3433;SDS011;1730;41.932;25.548;2023-04-25T06:04:49;5.03;;;4.60;;
3433;SDS011;1730;41.932;25.548;2023-04-25T06:07:15;4.93;;;4.53;;
3433;SDS011;1730;41.932;25.548;2023-04-25T06:09:40;4.40;;;4.20;;
3433;SDS011;1730;41.932;25.548;2023-04-25T06:12:06;7.80;;;5.70;;
3433;SDS011;1730;41.932;25.548;2023-04-25T06:14:32;4.60;;;4.30;;
3433;SDS011;1730;41.932;25.548;2023-04-25T06:16:58;5.20;;;4.70;;
3433;SDS011;1730;41.932;25.548;2023-04-25T06:19:24;5.00;;;3.97;;
3433;SDS011;1730;41.932;25.548;2023-04-25T06:21:50;4.80;;;4.40;;
3433;SDS011;1730;41.932;25.548;2023-04-25T06:24:15;4.63;;;4.23;;
3433;SDS011;1730;41.932;25.548;2023-04-25T06:26:40;6.90;;;6.40;;
3433;SDS011;1730;41.932;25.548;2023-04-25T06:29:06;5.40;;;5.07;;
3433;SDS011;1730;41.932;25.548;2023-04-25T06:31:31;4.33;;;4.13;;
3433;SDS011;1730;41.932;25.548;2023-04-25T06:33:58;4.17;;;3.87;;
3433;SDS011;1730;41.932;25.548;2023-04-25T06:36:23;6.47;;;4.90;;
3433;SDS011;1730;41.932;25.548;2023-04-25T06:38:51;4.70;;;4.40;;
3433;SDS011;1730;41.932;25.548;2023-04-25T06:41:17;4.40;;;4.10;;
3433;SDS011;1730;41.932;25.548;2023-04-25T06:43:43;6.93;;;5.17;;
3433;SDS011;1730;41.932;25.548;2023-04-25T06:46:09;4.30;;;4.00;;
3433;SDS011;1730;41.932;25.548;2023-04-25T06:48:35;4.80;;;4.37;;
3433;SDS011;1730;41.932;25.548;2023-04-25T06:51:00;4.70;;;4.30;;
3433;SDS011;1730;41.932;25.548;2023-04-25T06:53:27;5.90;;;5.13;;
3433;SDS011;1730;41.932;25.548;2023-04-25T06:55:52;8.47;;;4.83;;
3433;SDS011;1730;41.932;25.548;2023-04-25T06:58:18;5.30;;;4.90;;
3433;SDS011;1730;41.932;25.548;2023-04-25T07:00:43;5.07;;;4.53;;
3433;SDS011;1730;41.932;25.548;2023-04-25T07:03:09;5.30;;;4.50;;
3433;SDS011;1730;41.932;25.548;2023-04-25T07:05:34;5.47;;;5.03;;
3433;SDS011;1730;41.932;25.548;2023-04-25T07:08:00;5.13;;;4.73;;
3433;SDS011;1730;41.932;25.548;2023-04-25T07:10:26;7.80;;;5.10;;
3433;SDS011;1730;41.932;25.548;2023-04-25T07:12:51;6.40;;;5.90;;
3433;SDS011;1730;41.932;25.548;2023-04-25T07:15:17;5.60;;;5.10;;
3433;SDS011;1730;41.932;25.548;2023-04-25T07:17:42;5.70;;;5.33;;
3433;SDS011;1730;41.932;25.548;2023-04-25T07:20:08;8.60;;;6.00;;
3433;SDS011;1730;41.932;25.548;2023-04-25T07:22:35;7.13;;;6.57;;
3433;SDS011;1730;41.932;25.548;2023-04-25T07:25:00;7.50;;;6.80;;
3433;SDS011;1730;41.932;25.548;2023-04-25T07:27:26;6.50;;;6.00;;
3433;SDS011;1730;41.932;25.548;2023-04-25T07:29:51;7.43;;;5.80;;
3433;SDS011;1730;41.932;25.548;2023-04-25T07:32:17;7.30;;;6.70;;
3433;SDS011;1730;41.932;25.548;2023-04-25T07:34:42;8.80;;;6.50;;
3433;SDS011;1730;41.932;25.548;2023-04-25T07:37:08;6.67;;;6.10;;
3433;SDS011;1730;41.932;25.548;2023-04-25T07:39:33;6.87;;;6.17;;
3433;SDS011;1730;41.932;25.548;2023-04-25T07:42:00;7.70;;;6.50;;
3433;SDS011;1730;41.932;25.548;2023-04-25T07:44:25;7.37;;;6.80;;
3433;SDS011;1730;41.932;25.548;2023-04-25T07:46:51;8.60;;;6.97;;
3433;SDS011;1730;41.932;25.548;2023-04-25T07:49:16;6.87;;;6.30;;
3433;SDS011;1730;41.932;25.548;2023-04-25T07:51:41;11.10;;;6.40;;
3433;SDS011;1730;41.932;25.548;2023-04-25T07:54:09;34.87;;;25.30;;
3433;SDS011;1730;41.932;25.548;2023-04-25T07:56:34;6.53;;;6.10;;
3433;SDS011;1730;41.932;25.548;2023-04-25T07:59:00;8.27;;;6.10;;
3433;SDS011;1730;41.932;25.548;2023-04-25T08:01:26;7.33;;;6.73;;
3433;SDS011;1730;41.932;25.548;2023-04-25T08:03:52;6.60;;;6.00;;
3433;SDS011;1730;41.932;25.548;2023-04-25T08:06:18;6.20;;;5.60;;
3433;SDS011;1730;41.932;25.548;2023-04-25T08:08:43;5.90;;;5.50;;
3433;SDS011;1730;41.932;25.548;2023-04-25T08:11:09;5.50;;;5.20;;
3433;SDS011;1730;41.932;25.548;2023-04-25T08:13:35;5.43;;;4.90;;
3433;SDS011;1730;41.932;25.548;2023-04-25T08:16:01;6.97;;;5.33;;
3433;SDS011;1730;41.932;25.548;2023-04-25T08:18:26;6.63;;;6.03;;
3433;SDS011;1730;41.932;25.548;2023-04-25T08:20:52;6.70;;;6.00;;
3433;SDS011;1730;41.932;25.548;2023-04-25T08:23:17;6.50;;;6.10;;
3433;SDS011;1730;41.932;25.548;2023-04-25T08:25:43;10.33;;;6.10;;
3433;SDS011;1730;41.932;25.548;2023-04-25T08:28:08;8.13;;;7.50;;
3433;SDS011;1730;41.932;25.548;2023-04-25T08:30:34;6.80;;;5.10;;
3433;SDS011;1730;41.932;25.548;2023-04-25T08:33:00;6.00;;;4.93;;
3433;SDS011;1730;41.932;25.548;2023-04-25T08:35:25;5.00;;;4.60;;
3433;SDS011;1730;41.932;25.548;2023-04-25T08:37:51;6.97;;;6.40;;
3433;SDS011;1730;41.932;25.548;2023-04-25T08:40:16;5.53;;;5.23;;
3433;SDS011;1730;41.932;25.548;2023-04-25T08:42:42;4.43;;;4.10;;
3433;SDS011;1730;41.932;25.548;2023-04-25T08:45:08;4.17;;;3.80;;
3433;SDS011;1730;41.932;25.548;2023-04-25T08:47:35;4.50;;;4.30;;
3433;SDS011;1730;41.932;25.548;2023-04-25T08:50:03;3.70;;;3.50;;
3433;SDS011;1730;41.932;25.548;2023-04-25T08:52:32;6.30;;;3.97;;
3433;SDS011;1730;41.932;25.548;2023-04-25T08:55:03;3.90;;;3.60;;
3433;SDS011;1730;41.932;25.548;2023-04-25T08:57:29;3.90;;;3.70;;
3433;SDS011;1730;41.932;25.548;2023-04-25T08:59:57;4.23;;;3.93;;
3433;SDS011;1730;41.932;25.548;2023-04-25T09:02:28;3.43;;;3.23;;
3433;SDS011;1730;41.932;25.548;2023-04-25T09:04:57;3.97;;;3.70;;
3433;SDS011;1730;41.932;25.548;2023-04-25T09:07:22;3.73;;;3.53;;
3433;SDS011;1730;41.932;25.548;2023-04-25T09:09:48;9.70;;;4.50;;
3433;SDS011;1730;41.932;25.548;2023-04-25T09:12:13;4.47;;;4.07;;
3433;SDS011;1730;41.932;25.548;2023-04-25T09:14:39;3.63;;;3.33;;
3433;SDS011;1730;41.932;25.548;2023-04-25T09:17:08;3.33;;;3.13;;
3433;SDS011;1730;41.932;25.548;2023-04-25T09:19:34;4.90;;;3.40;;
3433;SDS011;1730;41.932;25.548;2023-04-25T09:22:02;3.70;;;3.50;;
3433;SDS011;1730;41.932;25.548;2023-04-25T09:27:19;3.43;;;3.23;;
3433;SDS011;1730;41.932;25.548;2023-04-25T09:29:59;4.57;;;3.90;;
3433;SDS011;1730;41.932;25.548;2023-04-25T09:32:25;4.30;;;4.00;;
3433;SDS011;1730;41.932;25.548;2023-04-25T09:34:52;3.50;;;3.03;;
3433;SDS011;1730;41.932;25.548;2023-04-25T09:37:20;4.30;;;3.30;;
3433;SDS011;1730;41.932;25.548;2023-04-25T09:39:53;3.37;;;3.17;;
3433;SDS011;1730;41.932;25.548;2023-04-25T09:42:23;5.97;;;4.30;;
3433;SDS011;1730;41.932;25.548;2023-04-25T09:45:12;3.57;;;3.30;;
3433;SDS011;1730;41.932;25.548;2023-04-25T09:47:40;2.83;;;2.73;;
3433;SDS011;1730;41.932;25.548;2023-04-25T09:50:13;3.40;;;3.20;;
3433;SDS011;1730;41.932;25.548;2023-04-25T09:52:40;7.73;;;3.87;;
3433;SDS011;1730;41.932;25.548;2023-04-25T09:55:06;2.83;;;2.60;;
3433;SDS011;1730;41.932;25.548;2023-04-25T09:57:32;6.53;;;2.87;;
3433;SDS011;1730;41.932;25.548;2023-04-25T10:00:00;3.90;;;3.23;;
3433;SDS011;1730;41.932;25.548;2023-04-25T10:02:26;2.50;;;2.40;;
3433;SDS011;1730;41.932;25.548;2023-04-25T10:04:53;2.70;;;2.50;;
3433;SDS011;1730;41.932;25.548;2023-04-25T10:07:27;2.67;;;2.47;;
3433;SDS011;1730;41.932;25.548;2023-04-25T10:10:02;2.33;;;2.23;;
3433;SDS011;1730;41.932;25.548;2023-04-25T10:12:29;2.90;;;2.60;;
3433;SDS011;1730;41.932;25.548;2023-04-25T10:14:58;7.10;;;2.80;;
3433;SDS011;1730;41.932;25.548;2023-04-25T10:17:28;3.73;;;3.53;;
3433;SDS011;1730;41.932;25.548;2023-04-25T10:19:54;3.70;;;3.40;;
3433;SDS011;1730;41.932;25.548;2023-04-25T10:25:08;4.10;;;3.80;;
3433;SDS011;1730;41.932;25.548;2023-04-25T10:27:35;3.83;;;3.63;;
3433;SDS011;1730;41.932;25.548;2023-04-25T10:30:14;5.23;;;4.20;;
3433;SDS011;1730;41.932;25.548;2023-04-25T10:32:43;7.30;;;4.40;;
3433;SDS011;1730;41.932;25.548;2023-04-25T10:35:11;4.50;;;4.20;;
3433;SDS011;1730;41.932;25.548;2023-04-25T10:37:55;4.50;;;4.20;;
3433;SDS011;1730;41.932;25.548;2023-04-25T10:40:25;5.03;;;4.60;;
3433;SDS011;1730;41.932;25.548;2023-04-25T10:42:52;7.57;;;4.87;;
3433;SDS011;1730;41.932;25.548;2023-04-25T10:45:19;4.77;;;4.47;;
3433;SDS011;1730;41.932;25.548;2023-04-25T10:47:45;5.13;;;4.83;;
3433;SDS011;1730;41.932;25.548;2023-04-25T10:50:12;4.83;;;4.53;;
3433;SDS011;1730;41.932;25.548;2023-04-25T10:52:40;4.60;;;4.30;;
3433;SDS011;1730;41.932;25.548;2023-04-25T10:55:06;4.90;;;4.40;;
3433;SDS011;1730;41.932;25.548;2023-04-25T11:00:13;4.57;;;4.17;;
3433;SDS011;1730;41.932;25.548;2023-04-25T11:03:02;5.10;;;4.80;;
3433;SDS011;1730;41.932;25.548;2023-04-25T11:08:00;3.50;;;3.20;;
3433;SDS011;1730;41.932;25.548;2023-04-25T11:10:29;2.90;;;2.70;;
3433;SDS011;1730;41.932;25.548;2023-04-25T11:12:59;3.77;;;3.50;;
3433;SDS011;1730;41.932;25.548;2023-04-25T11:15:28;3.13;;;2.90;;
3433;SDS011;1730;41.932;25.548;2023-04-25T11:17:55;5.00;;;4.60;;
3433;SDS011;1730;41.932;25.548;2023-04-25T11:20:21;4.20;;;3.90;;
3433;SDS011;1730;41.932;25.548;2023-04-25T11:22:47;3.83;;;3.53;;
3433;SDS011;1730;41.932;25.548;2023-04-25T11:25:14;3.90;;;3.60;;
3433;SDS011;1730;41.932;25.548;2023-04-25T11:30:21;4.10;;;3.80;;
3433;SDS011;1730;41.932;25.548;2023-04-25T11:32:47;4.00;;;3.60;;
3433;SDS011;1730;41.932;25.548;2023-04-25T11:35:13;3.43;;;3.23;;
3433;SDS011;1730;41.932;25.548;2023-04-25T11:37:42;4.90;;;3.50;;
3433;SDS011;1730;41.932;25.548;2023-04-25T11:40:09;6.63;;;3.47;;
3433;SDS011;1730;41.932;25.548;2023-04-25T11:42:37;3.77;;;3.47;;
3433;SDS011;1730;41.932;25.548;2023-04-25T11:45:04;7.00;;;4.70;;
3433;SDS011;1730;41.932;25.548;2023-04-25T11:47:31;3.70;;;3.40;;
3433;SDS011;1730;41.932;25.548;2023-04-25T11:49:58;2.47;;;2.27;;
3433;SDS011;1730;41.932;25.548;2023-04-25T11:52:40;3.13;;;2.93;;
3433;SDS011;1730;41.932;25.548;2023-04-25T11:55:12;9.97;;;8.90;;
3433;SDS011;1730;41.932;25.548;2023-04-25T11:57:43;2.50;;;2.30;;
3433;SDS011;1730;41.932;25.548;2023-04-25T12:02:44;9.30;;;8.37;;
3433;SDS011;1730;41.932;25.548;2023-04-25T12:05:12;4.50;;;3.67;;
3433;SDS011;1730;41.932;25.548;2023-04-25T12:07:40;3.57;;;3.10;;
3433;SDS011;1730;41.932;25.548;2023-04-25T12:10:10;2.13;;;1.97;;
3433;SDS011;1730;41.932;25.548;2023-04-25T12:12:37;2.13;;;1.30;;
3433;SDS011;1730;41.932;25.548;2023-04-25T12:17:51;3.00;;;1.43;;
3433;SDS011;1730;41.932;25.548;2023-04-25T12:20:20;1.50;;;1.40;;
3433;SDS011;1730;41.932;25.548;2023-04-25T12:22:49;3.00;;;1.63;;
3433;SDS011;1730;41.932;25.548;2023-04-25T12:30:52;1.60;;;1.50;;
3433;SDS011;1730;41.932;25.548;2023-04-25T12:33:24;1.97;;;1.87;;
3433;SDS011;1730;41.932;25.548;2023-04-25T12:35:51;1.50;;;1.40;;
3433;SDS011;1730;41.932;25.548;2023-04-25T12:38:25;1.20;;;1.10;;
3433;SDS011;1730;41.932;25.548;2023-04-25T12:40:52;1.30;;;1.20;;
3433;SDS011;1730;41.932;25.548;2023-04-25T12:43:19;1.30;;;1.20;;
3433;SDS011;1730;41.932;25.548;2023-04-25T12:45:47;1.40;;;1.30;;
3433;SDS011;1730;41.932;25.548;2023-04-25T12:48:14;2.80;;;1.80;;
3433;SDS011;1730;41.932;25.548;2023-04-25T12:50:39;1.50;;;1.40;;
3433;SDS011;1730;41.932;25.548;2023-04-25T12:53:06;1.80;;;1.70;;
3433;SDS011;1730;41.932;25.548;2023-04-25T12:55:31;2.90;;;1.60;;
3433;SDS011;1730;41.932;25.548;2023-04-25T12:57:57;1.50;;;1.40;;
3433;SDS011;1730;41.932;25.548;2023-04-25T13:00:22;1.40;;;1.30;;
3433;SDS011;1730;41.932;25.548;2023-04-25T13:02:48;1.43;;;1.20;;
3433;SDS011;1730;41.932;25.548;2023-04-25T13:05:13;1.30;;;1.20;;
3433;SDS011;1730;41.932;25.548;2023-04-25T13:07:39;1.73;;;1.50;;
3433;SDS011;1730;41.932;25.548;2023-04-25T13:10:04;1.40;;;1.30;;
3433;SDS011;1730;41.932;25.548;2023-04-25T13:12:31;1.40;;;1.30;;
3433;SDS011;1730;41.932;25.548;2023-04-25T13:14:56;1.80;;;1.70;;
3433;SDS011;1730;41.932;25.548;2023-04-25T13:17:22;1.60;;;1.50;;
3433;SDS011;1730;41.932;25.548;2023-04-25T13:19:48;3.13;;;1.93;;
3433;SDS011;1730;41.932;25.548;2023-04-25T13:22:14;2.77;;;1.90;;
3433;SDS011;1730;41.932;25.548;2023-04-25T13:24:41;1.70;;;1.60;;
3433;SDS011;1730;41.932;25.548;2023-04-25T13:27:08;2.63;;;1.70;;
3433;SDS011;1730;41.932;25.548;2023-04-25T13:29:33;2.00;;;1.90;;
3433;SDS011;1730;41.932;25.548;2023-04-25T13:32:00;2.10;;;2.00;;
3433;SDS011;1730;41.932;25.548;2023-04-25T13:34:27;2.33;;;2.00;;
3433;SDS011;1730;41.932;25.548;2023-04-25T13:36:53;2.30;;;2.10;;
3433;SDS011;1730;41.932;25.548;2023-04-25T13:39:18;1.93;;;1.83;;
3433;SDS011;1730;41.932;25.548;2023-04-25T13:41:45;2.40;;;2.20;;
3433;SDS011;1730;41.932;25.548;2023-04-25T13:44:10;5.37;;;1.63;;
3433;SDS011;1730;41.932;25.548;2023-04-25T13:46:36;1.93;;;1.83;;
3433;SDS011;1730;41.932;25.548;2023-04-25T13:49:02;1.73;;;1.60;;
3433;SDS011;1730;41.932;25.548;2023-04-25T13:51:28;3.60;;;1.90;;
3433;SDS011;1730;41.932;25.548;2023-04-25T13:53:55;3.33;;;2.13;;
3433;SDS011;1730;41.932;25.548;2023-04-25T13:56:22;10.33;;;2.87;;
3433;SDS011;1730;41.932;25.548;2023-04-25T13:58:49;4.90;;;2.10;;
3433;SDS011;1730;41.932;25.548;2023-04-25T14:01:17;4.37;;;2.23;;
3433;SDS011;1730;41.932;25.548;2023-04-25T14:03:44;4.80;;;2.60;;
3433;SDS011;1730;41.932;25.548;2023-04-25T14:06:10;3.10;;;2.90;;
3433;SDS011;1730;41.932;25.548;2023-04-25T14:08:37;2.10;;;2.00;;
3433;SDS011;1730;41.932;25.548;2023-04-25T14:11:03;4.23;;;2.80;;
3433;SDS011;1730;41.932;25.548;2023-04-25T14:13:29;2.83;;;2.23;;
3433;SDS011;1730;41.932;25.548;2023-04-25T14:15:54;2.90;;;2.70;;
3433;SDS011;1730;41.932;25.548;2023-04-25T14:18:20;5.40;;;3.37;;
3433;SDS011;1730;41.932;25.548;2023-04-25T14:20:46;3.20;;;3.00;;
3433;SDS011;1730;41.932;25.548;2023-04-25T14:23:12;9.93;;;3.33;;
3433;SDS011;1730;41.932;25.548;2023-04-25T14:25:37;7.70;;;4.00;;
3433;SDS011;1730;41.932;25.548;2023-04-25T14:28:03;9.20;;;3.47;;
3433;SDS011;1730;41.932;25.548;2023-04-25T14:30:29;3.70;;;3.43;;
3433;SDS011;1730;41.932;25.548;2023-04-25T14:32:54;3.00;;;2.40;;
3433;SDS011;1730;41.932;25.548;2023-04-25T14:35:25;3.23;;;3.03;;
3433;SDS011;1730;41.932;25.548;2023-04-25T14:37:51;4.10;;;2.70;;
3433;SDS011;1730;41.932;25.548;2023-04-25T14:40:19;2.57;;;2.37;;
3433;SDS011;1730;41.932;25.548;2023-04-25T14:42:48;3.07;;;2.87;;
3433;SDS011;1730;41.932;25.548;2023-04-25T14:45:14;3.87;;;2.87;;
3433;SDS011;1730;41.932;25.548;2023-04-25T14:47:40;6.87;;;3.10;;
3433;SDS011;1730;41.932;25.548;2023-04-25T14:50:06;6.23;;;4.00;;
3433;SDS011;1730;41.932;25.548;2023-04-25T14:52:33;5.27;;;4.97;;
3433;SDS011;1730;41.932;25.548;2023-04-25T14:54:59;3.47;;;3.23;;
3433;SDS011;1730;41.932;25.548;2023-04-25T14:57:29;4.00;;;3.80;;
3433;SDS011;1730;41.932;25.548;2023-04-25T14:59:55;3.53;;;3.30;;
3433;SDS011;1730;41.932;25.548;2023-04-25T15:02:21;5.03;;;3.40;;
3433;SDS011;1730;41.932;25.548;2023-04-25T15:04:46;4.23;;;4.00;;
3433;SDS011;1730;41.932;25.548;2023-04-25T15:07:12;4.00;;;2.93;;
3433;SDS011;1730;41.932;25.548;2023-04-25T15:09:38;3.13;;;2.93;;
3433;SDS011;1730;41.932;25.548;2023-04-25T15:12:03;3.90;;;3.60;;
3433;SDS011;1730;41.932;25.548;2023-04-25T15:14:29;2.80;;;2.60;;
3433;SDS011;1730;41.932;25.548;2023-04-25T15:16:54;2.40;;;2.30;;
3433;SDS011;1730;41.932;25.548;2023-04-25T15:19:20;3.00;;;2.80;;